sensor_id;sensor_type;location;lat;lon;timestamp;P1;durP1;ratioP1;P2;durP2;ratioP2
18200;SDS011;9226;47.858;9.594;2023-04-19T00:01:17;18.37;;;8.93;;
18200;SDS011;9226;47.858;9.594;2023-04-19T00:03:44;20.53;;;9.23;;
18200;SDS011;9226;47.858;9.594;2023-04-19T00:06:09;21.13;;;9.73;;
18200;SDS011;9226;47.858;9.594;2023-04-19T00:08:38;19.37;;;9.23;;
18200;SDS011;9226;47.858;9.594;2023-04-19T00:11:03;18.53;;;9.27;;
18200;SDS011;9226;47.858;9.594;2023-04-19T00:13:29;20.80;;;8.70;;
18200;SDS011;9226;47.858;9.594;2023-04-19T00:15:54;20.40;;;9.67;;
18200;SDS011;9226;47.858;9.594;2023-04-19T00:18:20;21.60;;;9.83;;
18200;SDS011;9226;47.858;9.594;2023-04-19T00:20:45;19.67;;;9.23;;
18200;SDS011;9226;47.858;9.594;2023-04-19T00:23:12;20.50;;;9.63;;
18200;SDS011;9226;47.858;9.594;2023-04-19T00:25:38;19.73;;;9.67;;
18200;SDS011;9226;47.858;9.594;2023-04-19T00:28:03;20.20;;;9.70;;
18200;SDS011;9226;47.858;9.594;2023-04-19T00:30:29;18.53;;;8.93;;
18200;SDS011;9226;47.858;9.594;2023-04-19T00:32:54;23.10;;;10.10;;
18200;SDS011;9226;47.858;9.594;2023-04-19T00:35:19;20.43;;;9.00;;
18200;SDS011;9226;47.858;9.594;2023-04-19T00:37:45;20.50;;;9.93;;
18200;SDS011;9226;47.858;9.594;2023-04-19T00:40:10;19.97;;;9.13;;
18200;SDS011;9226;47.858;9.594;2023-04-19T00:42:36;19.33;;;9.37;;
18200;SDS011;9226;47.858;9.594;2023-04-19T00:45:01;21.40;;;10.03;;
18200;SDS011;9226;47.858;9.594;2023-04-19T00:47:27;19.20;;;9.10;;
18200;SDS011;9226;47.858;9.594;2023-04-19T00:49:52;20.83;;;9.60;;
18200;SDS011;9226;47.858;9.594;2023-04-19T00:52:18;21.13;;;9.53;;
18200;SDS011;9226;47.858;9.594;2023-04-19T00:54:43;19.60;;;9.40;;
18200;SDS011;9226;47.858;9.594;2023-04-19T00:57:09;19.60;;;9.00;;
18200;SDS011;9226;47.858;9.594;2023-04-19T00:59:35;18.83;;;9.10;;
18200;SDS011;9226;47.858;9.594;2023-04-19T01:02:00;18.60;;;9.63;;
18200;SDS011;9226;47.858;9.594;2023-04-19T01:04:26;19.33;;;9.77;;
18200;SDS011;9226;47.858;9.594;2023-04-19T01:06:51;21.30;;;10.30;;
18200;SDS011;9226;47.858;9.594;2023-04-19T01:09:17;21.03;;;9.90;;
18200;SDS011;9226;47.858;9.594;2023-04-19T01:11:42;20.03;;;9.57;;
18200;SDS011;9226;47.858;9.594;2023-04-19T01:14:08;23.63;;;10.13;;
18200;SDS011;9226;47.858;9.594;2023-04-19T01:16:33;19.77;;;9.43;;
18200;SDS011;9226;47.858;9.594;2023-04-19T01:19:00;21.57;;;9.40;;
18200;SDS011;9226;47.858;9.594;2023-04-19T01:21:25;20.50;;;8.83;;
18200;SDS011;9226;47.858;9.594;2023-04-19T01:23:53;19.63;;;8.63;;
18200;SDS011;9226;47.858;9.594;2023-04-19T01:26:20;19.57;;;8.93;;
18200;SDS011;9226;47.858;9.594;2023-04-19T01:28:46;23.83;;;9.40;;
18200;SDS011;9226;47.858;9.594;2023-04-19T01:31:11;17.83;;;8.93;;
18200;SDS011;9226;47.858;9.594;2023-04-19T01:33:37;19.97;;;8.83;;
18200;SDS011;9226;47.858;9.594;2023-04-19T01:36:02;20.10;;;8.57;;
18200;SDS011;9226;47.858;9.594;2023-04-19T01:38:28;18.03;;;8.67;;
18200;SDS011;9226;47.858;9.594;2023-04-19T01:40:53;19.33;;;8.63;;
18200;SDS011;9226;47.858;9.594;2023-04-19T01:43:21;17.63;;;8.40;;
18200;SDS011;9226;47.858;9.594;2023-04-19T01:45:46;16.47;;;8.17;;
18200;SDS011;9226;47.858;9.594;2023-04-19T01:48:12;18.30;;;8.20;;
18200;SDS011;9226;47.858;9.594;2023-04-19T01:50:37;19.07;;;8.17;;
18200;SDS011;9226;47.858;9.594;2023-04-19T01:53:02;19.77;;;7.90;;
18200;SDS011;9226;47.858;9.594;2023-04-19T01:55:28;17.57;;;7.90;;
18200;SDS011;9226;47.858;9.594;2023-04-19T01:57:53;15.73;;;7.57;;
18200;SDS011;9226;47.858;9.594;2023-04-19T02:00:19;16.27;;;8.00;;
18200;SDS011;9226;47.858;9.594;2023-04-19T02:02:44;16.17;;;7.30;;
18200;SDS011;9226;47.858;9.594;2023-04-19T02:05:10;14.33;;;7.00;;
18200;SDS011;9226;47.858;9.594;2023-04-19T02:07:35;15.17;;;7.07;;
18200;SDS011;9226;47.858;9.594;2023-04-19T02:10:01;15.07;;;6.63;;
18200;SDS011;9226;47.858;9.594;2023-04-19T02:12:27;16.87;;;7.40;;
18200;SDS011;9226;47.858;9.594;2023-04-19T02:14:53;13.07;;;6.63;;
18200;SDS011;9226;47.858;9.594;2023-04-19T02:17:24;17.03;;;7.30;;
18200;SDS011;9226;47.858;9.594;2023-04-19T02:19:50;15.70;;;6.80;;
18200;SDS011;9226;47.858;9.594;2023-04-19T02:22:16;15.43;;;6.97;;
18200;SDS011;9226;47.858;9.594;2023-04-19T02:24:41;16.80;;;6.97;;
18200;SDS011;9226;47.858;9.594;2023-04-19T02:27:07;16.40;;;7.27;;
18200;SDS011;9226;47.858;9.594;2023-04-19T02:29:32;15.43;;;7.27;;
18200;SDS011;9226;47.858;9.594;2023-04-19T02:31:58;13.57;;;6.60;;
18200;SDS011;9226;47.858;9.594;2023-04-19T02:34:23;17.20;;;7.37;;
18200;SDS011;9226;47.858;9.594;2023-04-19T02:36:49;16.00;;;7.40;;
18200;SDS011;9226;47.858;9.594;2023-04-19T02:39:14;15.53;;;7.60;;
18200;SDS011;9226;47.858;9.594;2023-04-19T02:41:41;16.40;;;7.17;;
18200;SDS011;9226;47.858;9.594;2023-04-19T02:44:06;15.37;;;7.07;;
18200;SDS011;9226;47.858;9.594;2023-04-19T02:46:32;15.20;;;6.80;;
18200;SDS011;9226;47.858;9.594;2023-04-19T02:48:59;17.43;;;7.77;;
18200;SDS011;9226;47.858;9.594;2023-04-19T02:51:25;16.10;;;7.73;;
18200;SDS011;9226;47.858;9.594;2023-04-19T02:53:51;15.37;;;7.27;;
18200;SDS011;9226;47.858;9.594;2023-04-19T02:56:16;17.73;;;7.60;;
18200;SDS011;9226;47.858;9.594;2023-04-19T02:58:42;15.37;;;7.13;;
18200;SDS011;9226;47.858;9.594;2023-04-19T03:01:08;14.67;;;6.90;;
18200;SDS011;9226;47.858;9.594;2023-04-19T03:03:33;15.30;;;7.30;;
18200;SDS011;9226;47.858;9.594;2023-04-19T03:05:59;16.23;;;7.50;;
18200;SDS011;9226;47.858;9.594;2023-04-19T03:08:24;15.10;;;7.40;;
18200;SDS011;9226;47.858;9.594;2023-04-19T03:10:49;13.43;;;7.20;;
18200;SDS011;9226;47.858;9.594;2023-04-19T03:13:15;15.10;;;6.77;;
18200;SDS011;9226;47.858;9.594;2023-04-19T03:15:40;14.07;;;7.13;;
18200;SDS011;9226;47.858;9.594;2023-04-19T03:18:05;15.50;;;7.67;;
18200;SDS011;9226;47.858;9.594;2023-04-19T03:20:31;15.43;;;7.40;;
18200;SDS011;9226;47.858;9.594;2023-04-19T03:22:56;15.23;;;6.70;;
18200;SDS011;9226;47.858;9.594;2023-04-19T03:25:21;13.60;;;6.03;;
18200;SDS011;9226;47.858;9.594;2023-04-19T03:27:47;15.27;;;7.10;;
18200;SDS011;9226;47.858;9.594;2023-04-19T03:30:13;16.60;;;7.13;;
18200;SDS011;9226;47.858;9.594;2023-04-19T03:32:39;14.97;;;7.43;;
18200;SDS011;9226;47.858;9.594;2023-04-19T03:35:04;13.07;;;6.33;;
18200;SDS011;9226;47.858;9.594;2023-04-19T03:37:30;16.17;;;8.03;;
18200;SDS011;9226;47.858;9.594;2023-04-19T03:39:55;13.37;;;6.97;;
18200;SDS011;9226;47.858;9.594;2023-04-19T03:42:21;15.77;;;7.40;;
18200;SDS011;9226;47.858;9.594;2023-04-19T03:44:46;16.87;;;7.70;;
18200;SDS011;9226;47.858;9.594;2023-04-19T03:47:12;19.00;;;7.37;;
18200;SDS011;9226;47.858;9.594;2023-04-19T03:49:37;16.17;;;7.53;;
18200;SDS011;9226;47.858;9.594;2023-04-19T03:52:03;17.33;;;6.63;;
18200;SDS011;9226;47.858;9.594;2023-04-19T03:54:28;16.97;;;8.23;;
18200;SDS011;9226;47.858;9.594;2023-04-19T03:56:53;15.47;;;7.63;;
18200;SDS011;9226;47.858;9.594;2023-04-19T03:59:19;17.60;;;7.73;;
18200;SDS011;9226;47.858;9.594;2023-04-19T04:01:44;17.10;;;7.47;;
18200;SDS011;9226;47.858;9.594;2023-04-19T04:04:10;19.67;;;8.07;;
18200;SDS011;9226;47.858;9.594;2023-04-19T04:06:38;15.07;;;7.50;;
18200;SDS011;9226;47.858;9.594;2023-04-19T04:09:03;15.87;;;7.20;;
18200;SDS011;9226;47.858;9.594;2023-04-19T04:11:29;17.77;;;8.30;;
18200;SDS011;9226;47.858;9.594;2023-04-19T04:13:55;16.23;;;7.27;;
18200;SDS011;9226;47.858;9.594;2023-04-19T04:16:20;17.27;;;7.70;;
18200;SDS011;9226;47.858;9.594;2023-04-19T04:18:46;16.77;;;7.97;;
18200;SDS011;9226;47.858;9.594;2023-04-19T04:21:11;15.37;;;7.23;;
18200;SDS011;9226;47.858;9.594;2023-04-19T04:23:37;16.07;;;7.50;;
18200;SDS011;9226;47.858;9.594;2023-04-19T04:26:02;16.60;;;7.50;;
18200;SDS011;9226;47.858;9.594;2023-04-19T04:28:29;14.57;;;7.50;;
18200;SDS011;9226;47.858;9.594;2023-04-19T04:30:55;16.70;;;7.50;;
18200;SDS011;9226;47.858;9.594;2023-04-19T04:33:25;16.27;;;7.83;;
18200;SDS011;9226;47.858;9.594;2023-04-19T04:35:52;17.30;;;8.30;;
18200;SDS011;9226;47.858;9.594;2023-04-19T04:38:18;14.63;;;7.20;;
18200;SDS011;9226;47.858;9.594;2023-04-19T04:40:53;18.40;;;8.20;;
18200;SDS011;9226;47.858;9.594;2023-04-19T04:43:23;16.57;;;8.10;;
18200;SDS011;9226;47.858;9.594;2023-04-19T04:45:49;16.70;;;7.67;;
18200;SDS011;9226;47.858;9.594;2023-04-19T04:48:16;17.03;;;8.13;;
18200;SDS011;9226;47.858;9.594;2023-04-19T04:50:41;18.07;;;8.27;;
18200;SDS011;9226;47.858;9.594;2023-04-19T04:53:08;17.30;;;8.30;;
18200;SDS011;9226;47.858;9.594;2023-04-19T04:55:33;20.10;;;8.17;;
18200;SDS011;9226;47.858;9.594;2023-04-19T04:57:59;17.93;;;8.03;;
18200;SDS011;9226;47.858;9.594;2023-04-19T05:00:24;18.17;;;7.67;;
18200;SDS011;9226;47.858;9.594;2023-04-19T05:02:50;17.60;;;7.77;;
18200;SDS011;9226;47.858;9.594;2023-04-19T05:05:15;17.90;;;8.20;;
18200;SDS011;9226;47.858;9.594;2023-04-19T05:07:41;17.33;;;8.27;;
18200;SDS011;9226;47.858;9.594;2023-04-19T05:10:06;17.33;;;8.03;;
18200;SDS011;9226;47.858;9.594;2023-04-19T05:12:32;17.93;;;8.60;;
18200;SDS011;9226;47.858;9.594;2023-04-19T05:14:58;16.97;;;7.80;;
18200;SDS011;9226;47.858;9.594;2023-04-19T05:17:23;15.97;;;7.23;;
18200;SDS011;9226;47.858;9.594;2023-04-19T05:19:49;18.03;;;7.93;;
18200;SDS011;9226;47.858;9.594;2023-04-19T05:22:15;20.40;;;8.40;;
18200;SDS011;9226;47.858;9.594;2023-04-19T05:24:40;20.57;;;8.57;;
18200;SDS011;9226;47.858;9.594;2023-04-19T05:27:06;17.87;;;8.13;;
18200;SDS011;9226;47.858;9.594;2023-04-19T05:29:31;21.93;;;8.47;;
18200;SDS011;9226;47.858;9.594;2023-04-19T05:31:57;21.70;;;8.27;;
18200;SDS011;9226;47.858;9.594;2023-04-19T05:34:22;27.77;;;8.57;;
18200;SDS011;9226;47.858;9.594;2023-04-19T05:36:48;23.23;;;9.47;;
18200;SDS011;9226;47.858;9.594;2023-04-19T05:39:14;17.43;;;8.63;;
18200;SDS011;9226;47.858;9.594;2023-04-19T05:41:39;19.90;;;9.17;;
18200;SDS011;9226;47.858;9.594;2023-04-19T05:44:05;17.13;;;8.97;;
18200;SDS011;9226;47.858;9.594;2023-04-19T05:46:30;32.33;;;9.80;;
18200;SDS011;9226;47.858;9.594;2023-04-19T05:48:56;19.47;;;9.27;;
18200;SDS011;9226;47.858;9.594;2023-04-19T05:51:21;20.73;;;9.17;;
18200;SDS011;9226;47.858;9.594;2023-04-19T05:53:46;19.87;;;9.50;;
18200;SDS011;9226;47.858;9.594;2023-04-19T05:56:12;24.40;;;8.63;;
18200;SDS011;9226;47.858;9.594;2023-04-19T05:58:37;21.17;;;8.87;;
18200;SDS011;9226;47.858;9.594;2023-04-19T06:01:02;23.77;;;8.87;;
18200;SDS011;9226;47.858;9.594;2023-04-19T06:03:31;19.20;;;9.23;;
18200;SDS011;9226;47.858;9.594;2023-04-19T06:05:57;26.17;;;10.80;;
18200;SDS011;9226;47.858;9.594;2023-04-19T06:08:23;21.13;;;10.23;;
18200;SDS011;9226;47.858;9.594;2023-04-19T06:10:48;20.47;;;10.20;;
18200;SDS011;9226;47.858;9.594;2023-04-19T06:13:14;20.40;;;9.17;;
18200;SDS011;9226;47.858;9.594;2023-04-19T06:15:40;24.43;;;10.87;;
18200;SDS011;9226;47.858;9.594;2023-04-19T06:18:05;24.87;;;10.90;;
18200;SDS011;9226;47.858;9.594;2023-04-19T06:20:38;23.50;;;10.70;;
18200;SDS011;9226;47.858;9.594;2023-04-19T06:23:04;24.70;;;10.03;;
18200;SDS011;9226;47.858;9.594;2023-04-19T06:25:30;24.03;;;10.00;;
18200;SDS011;9226;47.858;9.594;2023-04-19T06:27:56;21.63;;;10.03;;
18200;SDS011;9226;47.858;9.594;2023-04-19T06:30:21;21.97;;;10.63;;
18200;SDS011;9226;47.858;9.594;2023-04-19T06:32:47;22.67;;;10.30;;
18200;SDS011;9226;47.858;9.594;2023-04-19T06:35:12;30.50;;;10.20;;
18200;SDS011;9226;47.858;9.594;2023-04-19T06:37:38;23.47;;;9.83;;
18200;SDS011;9226;47.858;9.594;2023-04-19T06:40:03;22.70;;;9.93;;
18200;SDS011;9226;47.858;9.594;2023-04-19T06:42:31;22.97;;;10.03;;
18200;SDS011;9226;47.858;9.594;2023-04-19T06:44:56;27.17;;;10.20;;
18200;SDS011;9226;47.858;9.594;2023-04-19T06:47:21;21.63;;;9.37;;
18200;SDS011;9226;47.858;9.594;2023-04-19T06:49:47;21.47;;;9.90;;
18200;SDS011;9226;47.858;9.594;2023-04-19T06:52:12;21.93;;;9.93;;
18200;SDS011;9226;47.858;9.594;2023-04-19T06:54:38;21.00;;;10.17;;
18200;SDS011;9226;47.858;9.594;2023-04-19T06:57:03;20.00;;;9.27;;
18200;SDS011;9226;47.858;9.594;2023-04-19T06:59:28;17.67;;;8.73;;
18200;SDS011;9226;47.858;9.594;2023-04-19T07:01:56;26.80;;;9.83;;
18200;SDS011;9226;47.858;9.594;2023-04-19T07:04:22;23.57;;;9.40;;
18200;SDS011;9226;47.858;9.594;2023-04-19T07:06:48;25.13;;;9.60;;
18200;SDS011;9226;47.858;9.594;2023-04-19T07:09:16;20.13;;;9.73;;
18200;SDS011;9226;47.858;9.594;2023-04-19T07:11:42;24.07;;;10.03;;
18200;SDS011;9226;47.858;9.594;2023-04-19T07:14:07;20.63;;;9.67;;
18200;SDS011;9226;47.858;9.594;2023-04-19T07:16:32;20.27;;;9.43;;
18200;SDS011;9226;47.858;9.594;2023-04-19T07:18:58;19.97;;;8.70;;
18200;SDS011;9226;47.858;9.594;2023-04-19T07:21:23;19.43;;;9.60;;
18200;SDS011;9226;47.858;9.594;2023-04-19T07:23:52;24.93;;;9.90;;
18200;SDS011;9226;47.858;9.594;2023-04-19T07:26:18;20.63;;;10.03;;
18200;SDS011;9226;47.858;9.594;2023-04-19T07:28:43;19.03;;;9.63;;
18200;SDS011;9226;47.858;9.594;2023-04-19T07:31:13;17.93;;;9.17;;
18200;SDS011;9226;47.858;9.594;2023-04-19T07:33:42;18.43;;;9.30;;
18200;SDS011;9226;47.858;9.594;2023-04-19T07:36:08;21.13;;;9.63;;
18200;SDS011;9226;47.858;9.594;2023-04-19T07:38:33;21.50;;;9.33;;
18200;SDS011;9226;47.858;9.594;2023-04-19T07:40:59;18.47;;;9.33;;
18200;SDS011;9226;47.858;9.594;2023-04-19T07:43:24;41.47;;;10.60;;
18200;SDS011;9226;47.858;9.594;2023-04-19T07:45:50;20.83;;;8.97;;
18200;SDS011;9226;47.858;9.594;2023-04-19T07:48:16;21.23;;;9.60;;
18200;SDS011;9226;47.858;9.594;2023-04-19T07:50:42;23.57;;;9.47;;
18200;SDS011;9226;47.858;9.594;2023-04-19T07:53:07;18.33;;;8.57;;
18200;SDS011;9226;47.858;9.594;2023-04-19T07:55:32;18.80;;;9.30;;
18200;SDS011;9226;47.858;9.594;2023-04-19T07:57:59;19.07;;;8.47;;
18200;SDS011;9226;47.858;9.594;2023-04-19T08:00:25;20.07;;;8.77;;
18200;SDS011;9226;47.858;9.594;2023-04-19T08:02:50;22.30;;;8.90;;
18200;SDS011;9226;47.858;9.594;2023-04-19T08:05:16;18.93;;;8.90;;
18200;SDS011;9226;47.858;9.594;2023-04-19T08:07:42;20.30;;;9.27;;
18200;SDS011;9226;47.858;9.594;2023-04-19T08:10:08;21.27;;;9.37;;
18200;SDS011;9226;47.858;9.594;2023-04-19T08:12:34;17.87;;;8.50;;
18200;SDS011;9226;47.858;9.594;2023-04-19T08:15:00;19.73;;;8.30;;
18200;SDS011;9226;47.858;9.594;2023-04-19T08:17:26;19.20;;;8.33;;
18200;SDS011;9226;47.858;9.594;2023-04-19T08:19:52;20.47;;;9.53;;
18200;SDS011;9226;47.858;9.594;2023-04-19T08:22:18;27.80;;;10.73;;
18200;SDS011;9226;47.858;9.594;2023-04-19T08:24:44;20.50;;;9.20;;
18200;SDS011;9226;47.858;9.594;2023-04-19T08:27:10;22.47;;;9.43;;
18200;SDS011;9226;47.858;9.594;2023-04-19T08:29:35;21.33;;;9.50;;
18200;SDS011;9226;47.858;9.594;2023-04-19T08:32:02;20.93;;;10.23;;
18200;SDS011;9226;47.858;9.594;2023-04-19T08:34:29;21.97;;;10.20;;
18200;SDS011;9226;47.858;9.594;2023-04-19T08:36:54;24.57;;;11.37;;
18200;SDS011;9226;47.858;9.594;2023-04-19T08:39:20;22.87;;;11.47;;
18200;SDS011;9226;47.858;9.594;2023-04-19T08:41:45;26.07;;;11.97;;
18200;SDS011;9226;47.858;9.594;2023-04-19T08:44:12;36.03;;;12.53;;
18200;SDS011;9226;47.858;9.594;2023-04-19T08:46:38;39.43;;;14.40;;
18200;SDS011;9226;47.858;9.594;2023-04-19T08:49:05;39.30;;;15.93;;
18200;SDS011;9226;47.858;9.594;2023-04-19T08:51:32;35.73;;;15.27;;
18200;SDS011;9226;47.858;9.594;2023-04-19T08:53:58;37.93;;;16.07;;
18200;SDS011;9226;47.858;9.594;2023-04-19T08:56:28;38.40;;;15.20;;
18200;SDS011;9226;47.858;9.594;2023-04-19T08:58:54;33.33;;;14.77;;
18200;SDS011;9226;47.858;9.594;2023-04-19T09:01:20;26.90;;;13.20;;
18200;SDS011;9226;47.858;9.594;2023-04-19T09:03:45;25.67;;;12.67;;
18200;SDS011;9226;47.858;9.594;2023-04-19T09:06:10;31.37;;;13.17;;
18200;SDS011;9226;47.858;9.594;2023-04-19T09:08:36;27.70;;;13.03;;
18200;SDS011;9226;47.858;9.594;2023-04-19T09:11:03;28.67;;;12.30;;
18200;SDS011;9226;47.858;9.594;2023-04-19T09:13:28;31.23;;;13.00;;
18200;SDS011;9226;47.858;9.594;2023-04-19T09:15:54;27.20;;;12.10;;
18200;SDS011;9226;47.858;9.594;2023-04-19T09:18:26;29.43;;;13.00;;
18200;SDS011;9226;47.858;9.594;2023-04-19T09:20:51;31.10;;;13.73;;
18200;SDS011;9226;47.858;9.594;2023-04-19T09:23:24;33.60;;;13.90;;
18200;SDS011;9226;47.858;9.594;2023-04-19T09:25:58;33.27;;;13.23;;
18200;SDS011;9226;47.858;9.594;2023-04-19T09:28:26;32.23;;;13.17;;
18200;SDS011;9226;47.858;9.594;2023-04-19T09:30:52;28.87;;;13.10;;
18200;SDS011;9226;47.858;9.594;2023-04-19T09:33:36;29.53;;;12.67;;
18200;SDS011;9226;47.858;9.594;2023-04-19T09:36:05;28.20;;;13.37;;
18200;SDS011;9226;47.858;9.594;2023-04-19T09:38:47;35.87;;;14.03;;
18200;SDS011;9226;47.858;9.594;2023-04-19T09:41:15;34.87;;;14.03;;
18200;SDS011;9226;47.858;9.594;2023-04-19T09:43:43;40.07;;;14.57;;
18200;SDS011;9226;47.858;9.594;2023-04-19T09:46:28;35.80;;;14.03;;
18200;SDS011;9226;47.858;9.594;2023-04-19T09:48:56;32.80;;;14.43;;
18200;SDS011;9226;47.858;9.594;2023-04-19T09:51:43;35.93;;;14.23;;
18200;SDS011;9226;47.858;9.594;2023-04-19T09:54:09;34.40;;;15.27;;
18200;SDS011;9226;47.858;9.594;2023-04-19T09:56:36;37.07;;;16.13;;
18200;SDS011;9226;47.858;9.594;2023-04-19T09:59:02;34.50;;;14.80;;
18200;SDS011;9226;47.858;9.594;2023-04-19T10:01:37;32.53;;;14.60;;
18200;SDS011;9226;47.858;9.594;2023-04-19T10:04:03;38.57;;;15.17;;
18200;SDS011;9226;47.858;9.594;2023-04-19T10:06:30;43.30;;;15.87;;
18200;SDS011;9226;47.858;9.594;2023-04-19T10:08:59;32.77;;;14.80;;
18200;SDS011;9226;47.858;9.594;2023-04-19T10:11:33;35.60;;;14.50;;
18200;SDS011;9226;47.858;9.594;2023-04-19T10:14:03;45.90;;;17.33;;
18200;SDS011;9226;47.858;9.594;2023-04-19T10:16:30;39.83;;;14.53;;
18200;SDS011;9226;47.858;9.594;2023-04-19T10:18:56;34.63;;;15.20;;
18200;SDS011;9226;47.858;9.594;2023-04-19T10:21:22;33.47;;;13.83;;
18200;SDS011;9226;47.858;9.594;2023-04-19T10:23:50;31.43;;;13.97;;
18200;SDS011;9226;47.858;9.594;2023-04-19T10:26:15;32.23;;;13.67;;
18200;SDS011;9226;47.858;9.594;2023-04-19T10:28:41;39.23;;;14.90;;
18200;SDS011;9226;47.858;9.594;2023-04-19T10:31:07;34.90;;;14.10;;
18200;SDS011;9226;47.858;9.594;2023-04-19T10:33:36;33.27;;;14.73;;
18200;SDS011;9226;47.858;9.594;2023-04-19T10:36:06;33.20;;;13.73;;
18200;SDS011;9226;47.858;9.594;2023-04-19T10:38:34;29.30;;;12.30;;
18200;SDS011;9226;47.858;9.594;2023-04-19T10:41:01;31.80;;;13.53;;
18200;SDS011;9226;47.858;9.594;2023-04-19T10:43:28;37.47;;;14.10;;
18200;SDS011;9226;47.858;9.594;2023-04-19T10:45:58;27.83;;;12.87;;
18200;SDS011;9226;47.858;9.594;2023-04-19T10:48:31;31.13;;;13.00;;
18200;SDS011;9226;47.858;9.594;2023-04-19T11:01:30;27.73;;;12.43;;
18200;SDS011;9226;47.858;9.594;2023-04-19T11:07:03;30.93;;;12.93;;
18200;SDS011;9226;47.858;9.594;2023-04-19T11:14:35;24.67;;;11.00;;
18200;SDS011;9226;47.858;9.594;2023-04-19T11:17:11;30.60;;;12.27;;
18200;SDS011;9226;47.858;9.594;2023-04-19T11:20:00;35.57;;;11.50;;
18200;SDS011;9226;47.858;9.594;2023-04-19T11:22:45;32.93;;;11.23;;
18200;SDS011;9226;47.858;9.594;2023-04-19T11:27:37;22.40;;;11.07;;
18200;SDS011;9226;47.858;9.594;2023-04-19T11:30:08;21.10;;;10.10;;
18200;SDS011;9226;47.858;9.594;2023-04-19T11:32:35;27.37;;;11.53;;
18200;SDS011;9226;47.858;9.594;2023-04-19T11:35:07;25.73;;;11.57;;
18200;SDS011;9226;47.858;9.594;2023-04-19T11:37:34;23.47;;;10.60;;
18200;SDS011;9226;47.858;9.594;2023-04-19T11:40:00;20.90;;;9.67;;
18200;SDS011;9226;47.858;9.594;2023-04-19T11:42:26;19.13;;;9.30;;
18200;SDS011;9226;47.858;9.594;2023-04-19T11:44:53;21.83;;;10.10;;
18200;SDS011;9226;47.858;9.594;2023-04-19T11:47:20;24.67;;;11.33;;
18200;SDS011;9226;47.858;9.594;2023-04-19T11:49:45;33.03;;;10.97;;
18200;SDS011;9226;47.858;9.594;2023-04-19T11:52:11;23.40;;;11.07;;
18200;SDS011;9226;47.858;9.594;2023-04-19T11:54:36;51.30;;;12.73;;
18200;SDS011;9226;47.858;9.594;2023-04-19T11:57:05;23.73;;;11.33;;
18200;SDS011;9226;47.858;9.594;2023-04-19T11:59:33;21.00;;;10.20;;
18200;SDS011;9226;47.858;9.594;2023-04-19T12:02:03;24.13;;;10.87;;
18200;SDS011;9226;47.858;9.594;2023-04-19T12:04:33;21.53;;;10.07;;
18200;SDS011;9226;47.858;9.594;2023-04-19T12:07:00;26.67;;;10.63;;
18200;SDS011;9226;47.858;9.594;2023-04-19T12:09:26;24.67;;;10.93;;
18200;SDS011;9226;47.858;9.594;2023-04-19T12:11:52;25.87;;;10.60;;
18200;SDS011;9226;47.858;9.594;2023-04-19T12:14:20;20.87;;;10.20;;
18200;SDS011;9226;47.858;9.594;2023-04-19T12:19:47;22.07;;;10.87;;
18200;SDS011;9226;47.858;9.594;2023-04-19T12:22:13;22.20;;;11.17;;
18200;SDS011;9226;47.858;9.594;2023-04-19T12:24:41;23.37;;;10.87;;
18200;SDS011;9226;47.858;9.594;2023-04-19T12:27:07;59.73;;;11.53;;
18200;SDS011;9226;47.858;9.594;2023-04-19T12:29:33;21.43;;;10.67;;
18200;SDS011;9226;47.858;9.594;2023-04-19T12:31:59;20.37;;;9.40;;
18200;SDS011;9226;47.858;9.594;2023-04-19T12:34:25;22.43;;;9.20;;
18200;SDS011;9226;47.858;9.594;2023-04-19T12:36:51;16.30;;;8.43;;
18200;SDS011;9226;47.858;9.594;2023-04-19T12:39:16;15.07;;;8.10;;
18200;SDS011;9226;47.858;9.594;2023-04-19T12:41:41;17.40;;;8.60;;
18200;SDS011;9226;47.858;9.594;2023-04-19T12:44:07;14.77;;;7.93;;
18200;SDS011;9226;47.858;9.594;2023-04-19T12:46:32;17.63;;;8.63;;
18200;SDS011;9226;47.858;9.594;2023-04-19T12:48:57;18.13;;;8.60;;
18200;SDS011;9226;47.858;9.594;2023-04-19T12:51:23;17.57;;;8.13;;
18200;SDS011;9226;47.858;9.594;2023-04-19T12:53:48;25.10;;;9.47;;
18200;SDS011;9226;47.858;9.594;2023-04-19T12:56:14;15.97;;;8.70;;
18200;SDS011;9226;47.858;9.594;2023-04-19T12:58:41;16.67;;;8.20;;
18200;SDS011;9226;47.858;9.594;2023-04-19T13:01:06;14.70;;;8.40;;
18200;SDS011;9226;47.858;9.594;2023-04-19T13:03:32;24.00;;;9.37;;
18200;SDS011;9226;47.858;9.594;2023-04-19T13:06:00;15.63;;;8.37;;
18200;SDS011;9226;47.858;9.594;2023-04-19T13:08:26;17.60;;;8.20;;
18200;SDS011;9226;47.858;9.594;2023-04-19T13:10:52;15.97;;;8.50;;
18200;SDS011;9226;47.858;9.594;2023-04-19T13:13:17;16.23;;;8.70;;
18200;SDS011;9226;47.858;9.594;2023-04-19T13:15:42;18.27;;;9.47;;
18200;SDS011;9226;47.858;9.594;2023-04-19T13:18:09;18.10;;;8.10;;
18200;SDS011;9226;47.858;9.594;2023-04-19T13:20:35;18.57;;;8.57;;
18200;SDS011;9226;47.858;9.594;2023-04-19T13:23:00;22.93;;;9.53;;
18200;SDS011;9226;47.858;9.594;2023-04-19T13:25:25;21.53;;;8.93;;
18200;SDS011;9226;47.858;9.594;2023-04-19T13:27:51;21.20;;;9.27;;
18200;SDS011;9226;47.858;9.594;2023-04-19T13:30:16;15.97;;;8.70;;
18200;SDS011;9226;47.858;9.594;2023-04-19T13:32:42;17.70;;;8.83;;
18200;SDS011;9226;47.858;9.594;2023-04-19T13:35:07;15.63;;;8.13;;
18200;SDS011;9226;47.858;9.594;2023-04-19T13:37:33;25.27;;;8.70;;
18200;SDS011;9226;47.858;9.594;2023-04-19T13:39:58;15.17;;;8.67;;
18200;SDS011;9226;47.858;9.594;2023-04-19T13:42:23;14.27;;;8.00;;
18200;SDS011;9226;47.858;9.594;2023-04-19T13:44:49;21.63;;;9.10;;
18200;SDS011;9226;47.858;9.594;2023-04-19T13:47:15;17.43;;;7.57;;
18200;SDS011;9226;47.858;9.594;2023-04-19T13:49:40;15.63;;;8.50;;
18200;SDS011;9226;47.858;9.594;2023-04-19T13:52:06;16.07;;;8.30;;
18200;SDS011;9226;47.858;9.594;2023-04-19T13:54:31;17.50;;;7.73;;
18200;SDS011;9226;47.858;9.594;2023-04-19T13:56:57;17.43;;;8.37;;
18200;SDS011;9226;47.858;9.594;2023-04-19T13:59:22;16.43;;;8.37;;
18200;SDS011;9226;47.858;9.594;2023-04-19T14:01:50;15.03;;;8.13;;
18200;SDS011;9226;47.858;9.594;2023-04-19T14:04:15;13.87;;;7.83;;
18200;SDS011;9226;47.858;9.594;2023-04-19T14:06:41;14.93;;;7.90;;
18200;SDS011;9226;47.858;9.594;2023-04-19T14:09:07;22.57;;;8.10;;
18200;SDS011;9226;47.858;9.594;2023-04-19T14:11:32;24.63;;;8.77;;
18200;SDS011;9226;47.858;9.594;2023-04-19T14:13:58;20.20;;;8.43;;
18200;SDS011;9226;47.858;9.594;2023-04-19T14:16:23;19.43;;;8.57;;
18200;SDS011;9226;47.858;9.594;2023-04-19T14:18:49;21.03;;;8.70;;
18200;SDS011;9226;47.858;9.594;2023-04-19T14:21:15;16.17;;;8.73;;
18200;SDS011;9226;47.858;9.594;2023-04-19T14:23:40;17.87;;;9.27;;
18200;SDS011;9226;47.858;9.594;2023-04-19T14:26:05;31.90;;;9.77;;
18200;SDS011;9226;47.858;9.594;2023-04-19T14:28:31;18.07;;;8.77;;
18200;SDS011;9226;47.858;9.594;2023-04-19T14:30:57;20.90;;;8.67;;
18200;SDS011;9226;47.858;9.594;2023-04-19T14:33:22;19.70;;;9.50;;
18200;SDS011;9226;47.858;9.594;2023-04-19T14:35:48;15.87;;;8.77;;
18200;SDS011;9226;47.858;9.594;2023-04-19T14:38:13;20.13;;;9.47;;
18200;SDS011;9226;47.858;9.594;2023-04-19T14:40:38;20.67;;;9.83;;
18200;SDS011;9226;47.858;9.594;2023-04-19T14:43:04;18.70;;;10.03;;
18200;SDS011;9226;47.858;9.594;2023-04-19T14:45:29;21.20;;;9.50;;
18200;SDS011;9226;47.858;9.594;2023-04-19T14:47:55;20.43;;;9.33;;
18200;SDS011;9226;47.858;9.594;2023-04-19T14:50:20;19.00;;;9.60;;
18200;SDS011;9226;47.858;9.594;2023-04-19T14:52:46;22.70;;;10.17;;
18200;SDS011;9226;47.858;9.594;2023-04-19T14:55:11;22.53;;;10.20;;
18200;SDS011;9226;47.858;9.594;2023-04-19T14:57:37;21.53;;;9.87;;
18200;SDS011;9226;47.858;9.594;2023-04-19T15:00:02;22.50;;;10.27;;
18200;SDS011;9226;47.858;9.594;2023-04-19T15:02:29;22.17;;;10.00;;